Time;durP1;ratioP1;P1;durP2;ratioP2;P2;SDS_P1;SDS_P2;PMS_P1;PMS_P2;Temp;Humidity;BMP_temperature;BMP_pressure;BME280_temperature;BME280_humidity;BME280_pressure;Samples;Min_cycle;Max_cycle;Signal;HPM_P1;HPM_P2
2023/04/27 00:02:01;;;;;;;9.80;4.53;;;;;;;;;;10400845;28;20033;-86
2023/04/27 00:07:03;;;;;;;12.40;5.27;;;;;;;;;;10402542;28;20045;-85
2023/04/27 00:12:04;;;;;;;11.53;5.07;;;;;;;;;;10402232;28;20033;-86
2023/04/27 00:17:05;;;;;;;25.07;9.33;;;;;;;;;;10401379;28;20026;-86
2023/04/27 00:22:06;;;;;;;18.13;6.87;;;;;;;;;;10402869;28;20478;-85
2023/04/27 00:27:07;;;;;;;23.33;8.97;;;;;;;;;;10401887;28;20065;-85
2023/04/27 00:32:11;;;;;;;21.67;9.27;;;;;;;;;;10402613;28;20163;-85
2023/04/27 00:37:12;;;;;;;18.63;6.80;;;;;;;;;;10402277;28;20508;-85
2023/04/27 00:42:18;;;;;;;23.13;8.93;;;;;;;;;;10402641;28;20033;-85
2023/04/27 00:47:19;;;;;;;18.57;8.53;;;;;;;;;;10402649;28;20032;-84
2023/04/27 00:52:23;;;;;;;22.30;10.07;;;;;;;;;;10410165;28;20030;-85
2023/04/27 00:57:24;;;;;;;26.73;10.97;;;;;;;;;;10410318;28;20041;-85
2023/04/27 01:02:25;;;;;;;52.37;18.83;;;;;;;;;;10409024;28;20535;-85
2023/04/27 01:07:29;;;;;;;30.67;14.20;;;;;;;;;;10409226;28;20029;-85
2023/04/27 01:12:30;;;;;;;33.97;14.70;;;;;;;;;;10408865;28;20079;-85
2023/04/27 01:17:33;;;;;;;36.37;13.97;;;;;;;;;;10408336;28;20112;-85
2023/04/27 01:22:38;;;;;;;37.57;15.07;;;;;;;;;;10408298;28;20036;-85
2023/04/27 01:27:39;;;;;;;28.37;14.33;;;;;;;;;;10408657;28;20164;-85
2023/04/27 01:32:40;;;;;;;29.80;14.60;;;;;;;;;;10408935;28;20032;-85
2023/04/27 01:37:44;;;;;;;34.70;14.53;;;;;;;;;;10408667;28;20037;-85
2023/04/27 01:42:45;;;;;;;30.83;14.50;;;;;;;;;;10408050;28;20045;-85
2023/04/27 01:47:46;;;;;;;35.17;15.33;;;;;;;;;;10407368;28;20044;-83
2023/04/27 01:52:49;;;;;;;29.90;15.17;;;;;;;;;;10407649;28;20041;-84
2023/04/27 01:57:50;;;;;;;35.03;14.83;;;;;;;;;;10407152;28;20735;-84
2023/04/27 02:02:52;;;;;;;26.70;13.47;;;;;;;;;;10407325;28;20113;-84
2023/04/27 02:07:53;;;;;;;32.63;15.63;;;;;;;;;;10407884;28;20485;-84
2023/04/27 02:12:54;;;;;;;30.73;14.87;;;;;;;;;;10404506;28;20053;-84
2023/04/27 02:17:56;;;;;;;33.43;14.97;;;;;;;;;;10406927;28;20389;-84
2023/04/27 02:23:00;;;;;;;33.73;15.17;;;;;;;;;;10406841;28;20671;-84
2023/04/27 02:28:03;;;;;;;27.93;15.23;;;;;;;;;;10405941;28;20115;-84
2023/04/27 02:33:04;;;;;;;36.70;17.73;;;;;;;;;;10405433;28;20765;-84
2023/04/27 02:38:05;;;;;;;30.47;16.17;;;;;;;;;;10405779;28;20030;-84
2023/04/27 02:43:06;;;;;;;30.43;17.17;;;;;;;;;;10405037;28;20036;-83
2023/04/27 02:48:07;;;;;;;33.23;16.93;;;;;;;;;;10405237;28;20049;-83
2023/04/27 02:53:11;;;;;;;31.73;17.13;;;;;;;;;;10405217;28;20126;-84
2023/04/27 02:58:14;;;;;;;33.13;16.70;;;;;;;;;;10395058;28;20084;-84
2023/04/27 03:03:15;;;;;;;34.03;17.23;;;;;;;;;;10403385;28;20044;-85
2023/04/27 03:08:16;;;;;;;34.47;17.30;;;;;;;;;;10402692;28;20033;-84
2023/04/27 03:13:24;;;;;;;29.87;16.03;;;;;;;;;;10402934;28;20128;-84
2023/04/27 03:18:25;;;;;;;32.23;14.43;;;;;;;;;;10399016;28;20030;-84
2023/04/27 03:23:26;;;;;;;35.17;16.40;;;;;;;;;;10404483;28;20132;-82
2023/04/27 03:28:27;;;;;;;37.73;16.90;;;;;;;;;;10403529;28;20053;-83
2023/04/27 03:33:28;;;;;;;37.23;18.00;;;;;;;;;;10403753;28;20072;-82
2023/04/27 03:38:30;;;;;;;35.07;18.47;;;;;;;;;;10403736;28;20369;-86
2023/04/27 03:43:30;;;;;;;39.97;18.03;;;;;;;;;;10402928;28;20779;-83
2023/04/27 03:48:31;;;;;;;41.83;19.90;;;;;;;;;;10400196;28;20053;-83
2023/04/27 03:53:35;;;;;;;42.10;21.00;;;;;;;;;;10391353;28;20377;-83
2023/04/27 03:58:36;;;;;;;47.33;23.20;;;;;;;;;;10401583;28;20432;-85
2023/04/27 04:03:39;;;;;;;48.17;21.50;;;;;;;;;;10399666;28;20044;-84
2023/04/27 04:08:40;;;;;;;47.77;21.63;;;;;;;;;;10401925;28;20045;-84
2023/04/27 04:13:41;;;;;;;50.83;22.33;;;;;;;;;;10397970;28;20041;-83
2023/04/27 04:18:44;;;;;;;59.87;28.47;;;;;;;;;;10395826;28;20829;-84
2023/04/27 04:23:45;;;;;;;67.63;27.70;;;;;;;;;;10415130;28;20100;-84
2023/04/27 04:28:46;;;;;;;58.77;27.63;;;;;;;;;;10409508;28;20053;-83
2023/04/27 04:33:52;;;;;;;66.53;29.73;;;;;;;;;;10402248;28;20377;-83
2023/04/27 04:38:53;;;;;;;66.15;28.27;;;;;;;;;;10406985;28;20033;-83
2023/04/27 04:43:54;;;;;;;69.53;30.83;;;;;;;;;;10408944;28;20483;-83
2023/04/27 04:48:55;;;;;;;55.50;29.63;;;;;;;;;;10397556;28;20041;-84
2023/04/27 04:53:56;;;;;;;73.33;32.67;;;;;;;;;;10397713;28;20483;-85
2023/04/27 04:58:57;;;;;;;66.73;29.27;;;;;;;;;;10397009;28;20103;-83
2023/04/27 05:04:03;;;;;;;61.07;27.37;;;;;;;;;;10431801;28;20034;-84
2023/04/27 05:09:05;;;;;;;42.67;20.02;;;;;;;;;;10442590;28;20036;-84
2023/04/27 05:14:06;;;;;;;30.33;13.70;;;;;;;;;;10442176;28;20080;-84
2023/04/27 05:19:09;;;;;;;42.33;18.43;;;;;;;;;;10426894;28;20116;-86
2023/04/27 05:24:10;;;;;;;20.53;10.23;;;;;;;;;;10410252;28;20121;-84
2023/04/27 05:29:11;;;;;;;23.50;11.20;;;;;;;;;;10435649;28;20063;-86
2023/04/27 05:34:13;;;;;;;18.30;9.70;;;;;;;;;;10416150;28;20060;-86
2023/04/27 05:39:14;;;;;;;20.83;11.00;;;;;;;;;;10433967;28;20052;-86
2023/04/27 05:44:15;;;;;;;18.93;9.20;;;;;;;;;;10447971;28;20033;-86
2023/04/27 05:49:16;;;;;;;19.10;9.00;;;;;;;;;;10446883;28;20511;-86
2023/04/27 05:54:17;;;;;;;20.60;9.07;;;;;;;;;;10437566;28;20032;-86
2023/04/27 05:59:18;;;;;;;19.47;8.60;;;;;;;;;;10407370;28;20029;-86
2023/04/27 06:04:19;;;;;;;15.67;7.93;;;;;;;;;;10405021;28;20072;-83
2023/04/27 06:09:24;;;;;;;20.30;8.40;;;;;;;;;;10406476;28;20087;-84
2023/04/27 06:14:32;;;;;;;16.70;7.43;;;;;;;;;;10405808;28;20034;-84
2023/04/27 06:19:33;;;;;;;15.47;6.87;;;;;;;;;;10407827;28;20025;-85
2023/04/27 06:24:35;;;;;;;18.67;7.73;;;;;;;;;;10406540;28;20530;-85
2023/04/27 06:29:38;;;;;;;11.93;6.47;;;;;;;;;;10406919;28;20037;-85
2023/04/27 06:34:39;;;;;;;11.70;6.20;;;;;;;;;;10407069;28;20072;-84
2023/04/27 06:39:40;;;;;;;8.10;4.73;;;;;;;;;;10406477;28;20128;-84
2023/04/27 06:44:41;;;;;;;11.80;4.83;;;;;;;;;;10404927;28;20040;-85
2023/04/27 06:49:44;;;;;;;13.80;5.97;;;;;;;;;;10405953;28;20045;-84
2023/04/27 06:54:47;;;;;;;9.83;4.73;;;;;;;;;;10406304;28;20576;-85
2023/04/27 06:59:50;;;;;;;8.70;4.77;;;;;;;;;;10405695;28;20036;-85
2023/04/27 07:04:56;;;;;;;14.90;7.13;;;;;;;;;;10405209;28;20468;-84
2023/04/27 07:09:57;;;;;;;14.68;6.05;;;;;;;;;;10405524;28;20481;-84
2023/04/27 07:14:58;;;;;;;13.23;6.67;;;;;;;;;;10405513;28;20028;-84
2023/04/27 07:20:00;;;;;;;9.53;4.90;;;;;;;;;;10405629;28;20049;-84
2023/04/27 07:25:04;;;;;;;9.93;4.93;;;;;;;;;;10403090;28;20116;-84
2023/04/27 07:30:08;;;;;;;10.07;5.47;;;;;;;;;;10399945;28;20033;-84
2023/04/27 07:35:12;;;;;;;12.67;4.73;;;;;;;;;;10404574;28;20103;-84
2023/04/27 07:40:15;;;;;;;10.43;4.57;;;;;;;;;;10402684;28;20025;-84
2023/04/27 07:45:19;;;;;;;12.20;4.55;;;;;;;;;;10403849;28;20623;-85
2023/04/27 07:50:24;;;;;;;11.90;5.30;;;;;;;;;;10403525;28;20049;-83
2023/04/27 07:55:25;;;;;;;8.60;5.10;;;;;;;;;;10403172;28;20669;-84
2023/04/27 08:00:26;;;;;;;10.63;5.07;;;;;;;;;;10402121;28;20105;-83
2023/04/27 08:05:27;;;;;;;8.57;4.50;;;;;;;;;;10402870;28;20401;-84
2023/04/27 08:10:28;;;;;;;6.57;4.00;;;;;;;;;;10401234;28;20033;-84
2023/04/27 08:15:29;;;;;;;7.15;3.85;;;;;;;;;;10402672;28;20037;-83
2023/04/27 08:20:30;;;;;;;8.43;4.38;;;;;;;;;;10402260;28;20042;-84
2023/04/27 08:25:33;;;;;;;7.20;3.13;;;;;;;;;;10399898;28;20057;-86
2023/04/27 08:30:35;;;;;;;6.32;3.63;;;;;;;;;;10400569;28;20472;-85
2023/04/27 08:35:36;;;;;;;8.35;3.80;;;;;;;;;;10401399;28;20033;-85
2023/04/27 08:40:41;;;;;;;8.43;4.53;;;;;;;;;;10401784;28;20676;-87
2023/04/27 08:45:49;;;;;;;6.80;3.88;;;;;;;;;;10401741;28;20041;-85
2023/04/27 08:50:50;;;;;;;14.27;5.93;;;;;;;;;;10389398;28;20493;-86
2023/04/27 08:55:55;;;;;;;14.82;5.63;;;;;;;;;;10401386;28;20439;-85
2023/04/27 09:00:56;;;;;;;17.13;7.57;;;;;;;;;;10399501;28;20037;-85
2023/04/27 09:05:57;;;;;;;7.72;4.90;;;;;;;;;;10402243;28;20042;-85
2023/04/27 09:10:58;;;;;;;13.75;6.05;;;;;;;;;;10405882;28;20045;-83
2023/04/27 09:16:01;;;;;;;6.47;3.35;;;;;;;;;;10409189;28;20114;-85
2023/04/27 09:21:03;;;;;;;5.55;3.13;;;;;;;;;;10409481;28;20037;-85
2023/04/27 09:26:07;;;;;;;7.47;4.27;;;;;;;;;;10408040;28;20053;-84
2023/04/27 09:31:10;;;;;;;11.97;4.27;;;;;;;;;;10408644;28;20095;-85
2023/04/27 09:36:11;;;;;;;8.80;3.93;;;;;;;;;;10395748;28;20033;-85
2023/04/27 09:41:12;;;;;;;23.27;11.07;;;;;;;;;;10406272;28;20045;-85
2023/04/27 09:46:18;;;;;;;8.32;4.05;;;;;;;;;;10407337;28;20156;-84
2023/04/27 09:51:19;;;;;;;13.55;5.75;;;;;;;;;;10405808;28;20041;-83
2023/04/27 09:56:27;;;;;;;18.27;8.27;;;;;;;;;;10408774;28;20074;-83
2023/04/27 10:01:49;;;;;;;32.72;11.98;;;;;;;;;;10407015;28;20049;-83
2023/04/27 10:07:04;;;;;;;10.82;4.97;;;;;;;;;;10406005;28;20021;-84
2023/04/27 10:12:19;;;;;;;10.20;5.97;;;;;;;;;;10402683;28;20043;-84
2023/04/27 10:17:25;;;;;;;8.23;4.93;;;;;;;;;;10406828;28;20472;-82
2023/04/27 10:22:45;;;;;;;19.83;9.23;;;;;;;;;;10406202;28;20026;-85
2023/04/27 10:28:00;;;;;;;5.95;3.85;;;;;;;;;;10405819;28;20057;-82
2023/04/27 10:33:10;;;;;;;17.25;8.60;;;;;;;;;;10393709;28;20029;-83
2023/04/27 10:38:15;;;;;;;9.98;4.70;;;;;;;;;;10405922;28;20026;-83
2023/04/27 10:43:17;;;;;;;6.75;4.15;;;;;;;;;;10404463;28;20041;-83
2023/04/27 10:48:18;;;;;;;10.63;4.88;;;;;;;;;;10405876;28;20037;-83
2023/04/27 10:53:19;;;;;;;7.88;4.72;;;;;;;;;;10405929;28;20385;-85
2023/04/27 10:58:23;;;;;;;9.32;4.60;;;;;;;;;;10408821;28;20746;-83
2023/04/27 11:03:25;;;;;;;17.48;6.97;;;;;;;;;;10437189;28;20029;-83
2023/04/27 11:08:26;;;;;;;11.68;5.40;;;;;;;;;;10432988;28;20774;-83
2023/04/27 11:13:27;;;;;;;8.15;4.20;;;;;;;;;;10439975;28;20021;-84
2023/04/27 11:18:32;;;;;;;5.47;3.17;;;;;;;;;;10431925;28;20036;-84
2023/04/27 11:23:37;;;;;;;5.40;3.28;;;;;;;;;;10425787;28;20020;-83
2023/04/27 11:28:38;;;;;;;8.63;4.20;;;;;;;;;;10426906;28;20588;-85
2023/04/27 11:33:47;;;;;;;8.23;4.55;;;;;;;;;;10434513;28;20036;-83
2023/04/27 11:38:48;;;;;;;8.02;3.67;;;;;;;;;;10434005;28;20033;-84
2023/04/27 11:43:50;;;;;;;7.07;3.83;;;;;;;;;;10416556;28;20117;-83
2023/04/27 11:48:51;;;;;;;10.32;4.35;;;;;;;;;;10408576;28;20073;-83
2023/04/27 11:53:52;;;;;;;6.85;3.83;;;;;;;;;;10442635;28;20028;-84
2023/04/27 11:58:55;;;;;;;10.32;4.07;;;;;;;;;;10428294;28;20527;-82
2023/04/27 12:03:56;;;;;;;11.13;6.10;;;;;;;;;;10434397;28;20052;-83
2023/04/27 12:08:57;;;;;;;7.70;4.65;;;;;;;;;;10442828;28;20404;-82
2023/04/27 12:13:58;;;;;;;10.15;5.13;;;;;;;;;;10426398;28;20033;-84
2023/04/27 12:18:59;;;;;;;9.18;5.60;;;;;;;;;;10433124;28;20052;-84
2023/04/27 12:24:02;;;;;;;12.55;6.68;;;;;;;;;;10443532;28;20029;-82
2023/04/27 12:29:03;;;;;;;13.00;6.05;;;;;;;;;;10436048;28;20056;-82
2023/04/27 12:34:04;;;;;;;8.48;4.60;;;;;;;;;;10431626;28;20067;-84
2023/04/27 12:39:18;;;;;;;6.72;4.57;;;;;;;;;;10426672;28;20570;-82
2023/04/27 12:44:20;;;;;;;11.05;5.78;;;;;;;;;;10420492;28;20033;-83
2023/04/27 12:49:21;;;;;;;17.45;8.65;;;;;;;;;;10440722;28;20033;-83
2023/04/27 12:54:22;;;;;;;58.92;27.65;;;;;;;;;;10430794;28;20026;-83
2023/04/27 12:59:23;;;;;;;8.13;6.10;;;;;;;;;;10413791;28;20055;-86
2023/04/27 13:04:24;;;;;;;9.27;5.68;;;;;;;;;;10433876;28;20029;-84
2023/04/27 13:09:25;;;;;;;13.25;6.57;;;;;;;;;;10429335;28;20128;-85
2023/04/27 13:14:27;;;;;;;12.75;6.60;;;;;;;;;;10433819;28;20417;-83
2023/04/27 13:19:30;;;;;;;9.00;4.82;;;;;;;;;;10424339;28;20048;-84
2023/04/27 13:24:31;;;;;;;6.20;4.00;;;;;;;;;;10436220;28;20033;-85
2023/04/27 13:29:32;;;;;;;5.57;3.30;;;;;;;;;;10428414;28;20095;-84
2023/04/27 13:34:33;;;;;;;13.45;6.20;;;;;;;;;;10447834;28;20025;-86
2023/04/27 13:39:36;;;;;;;12.55;5.80;;;;;;;;;;10430087;28;20021;-84
2023/04/27 13:44:37;;;;;;;12.88;6.97;;;;;;;;;;10429436;28;20111;-84
2023/04/27 13:49:38;;;;;;;10.73;4.70;;;;;;;;;;10399749;28;20026;-84
2023/04/27 13:54:39;;;;;;;10.15;6.28;;;;;;;;;;10409199;28;20025;-85
2023/04/27 13:59:40;;;;;;;12.25;6.78;;;;;;;;;;10406239;28;20572;-84
2023/04/27 14:04:41;;;;;;;10.13;4.63;;;;;;;;;;10405586;28;20084;-82
2023/04/27 14:09:42;;;;;;;15.35;4.78;;;;;;;;;;10406817;28;20041;-81
2023/04/27 14:14:43;;;;;;;6.13;3.85;;;;;;;;;;10405014;28;20041;-83
2023/04/27 14:19:44;;;;;;;15.10;5.75;;;;;;;;;;10406352;28;20036;-83
2023/04/27 14:24:46;;;;;;;10.30;5.15;;;;;;;;;;10404782;28;20045;-82
2023/04/27 14:29:47;;;;;;;6.78;4.60;;;;;;;;;;10418027;28;20053;-83
2023/04/27 14:34:48;;;;;;;14.25;6.25;;;;;;;;;;10405912;28;20072;-84
2023/04/27 14:39:49;;;;;;;11.25;5.00;;;;;;;;;;10406184;28;20052;-85
2023/04/27 14:44:50;;;;;;;12.18;6.28;;;;;;;;;;10404236;28;20065;-83
2023/04/27 14:49:51;;;;;;;9.07;4.93;;;;;;;;;;10409046;28;20036;-82
2023/04/27 14:54:52;;;;;;;9.05;5.00;;;;;;;;;;10425940;28;20022;-83
2023/04/27 14:59:53;;;;;;;12.15;6.15;;;;;;;;;;10410631;28;20337;-82
2023/04/27 15:04:54;;;;;;;26.55;13.57;;;;;;;;;;10433296;28;20060;-84
2023/04/27 15:09:56;;;;;;;10.50;4.85;;;;;;;;;;10424088;28;20041;-84
2023/04/27 15:14:57;;;;;;;6.72;4.28;;;;;;;;;;10407478;28;20524;-83
2023/04/27 15:19:59;;;;;;;9.32;5.15;;;;;;;;;;10439572;28;20037;-84
2023/04/27 15:25:01;;;;;;;7.88;5.00;;;;;;;;;;10444120;28;20053;-83
2023/04/27 15:30:04;;;;;;;7.50;4.63;;;;;;;;;;10434731;28;20051;-84
2023/04/27 15:35:07;;;;;;;8.55;4.28;;;;;;;;;;10438809;28;20048;-83
2023/04/27 15:40:08;;;;;;;7.07;4.20;;;;;;;;;;10443831;28;20029;-83
2023/04/27 15:45:09;;;;;;;15.10;6.43;;;;;;;;;;10419929;28;20037;-83
2023/04/27 15:50:11;;;;;;;12.30;5.70;;;;;;;;;;10397898;28;20681;-83
2023/04/27 15:55:13;;;;;;;10.60;5.55;;;;;;;;;;10393781;28;20032;-82
2023/04/27 16:00:15;;;;;;;15.98;7.38;;;;;;;;;;10402847;28;20034;-85
2023/04/27 16:05:16;;;;;;;9.50;5.22;;;;;;;;;;10401609;28;20029;-84
2023/04/27 16:10:17;;;;;;;13.40;6.05;;;;;;;;;;10411989;28;20703;-83
2023/04/27 16:15:18;;;;;;;11.85;6.05;;;;;;;;;;10397152;28;20026;-84
2023/04/27 16:20:20;;;;;;;6.80;4.47;;;;;;;;;;10402909;28;20029;-84
2023/04/27 16:25:21;;;;;;;9.65;4.25;;;;;;;;;;10400066;28;20057;-85
2023/04/27 16:30:25;;;;;;;14.63;5.10;;;;;;;;;;10400741;28;20049;-83
2023/04/27 16:35:27;;;;;;;7.10;3.60;;;;;;;;;;10401868;28;20464;-83
2023/04/27 16:40:28;;;;;;;9.73;3.90;;;;;;;;;;10399920;28;20427;-83
2023/04/27 16:45:30;;;;;;;7.50;3.63;;;;;;;;;;10407637;28;20024;-83
2023/04/27 16:50:32;;;;;;;4.35;2.92;;;;;;;;;;10409751;28;20049;-84
2023/04/27 16:55:33;;;;;;;5.97;3.30;;;;;;;;;;10402660;28;20036;-83
2023/04/27 17:00:34;;;;;;;4.55;3.00;;;;;;;;;;10400686;28;20044;-83
2023/04/27 17:05:35;;;;;;;8.83;3.77;;;;;;;;;;10402128;28;20025;-82
2023/04/27 17:10:37;;;;;;;5.73;3.17;;;;;;;;;;10400387;28;20041;-83
2023/04/27 17:15:38;;;;;;;4.33;3.03;;;;;;;;;;10390900;28;20030;-83
2023/04/27 17:20:39;;;;;;;6.80;3.53;;;;;;;;;;10402363;28;20030;-83
2023/04/27 17:25:40;;;;;;;8.10;3.57;;;;;;;;;;10398005;28;20049;-84
2023/04/27 17:30:41;;;;;;;6.97;3.80;;;;;;;;;;10400354;28;20041;-84
2023/04/27 17:35:43;;;;;;;11.23;4.70;;;;;;;;;;10405957;28;20487;-83
2023/04/27 17:40:44;;;;;;;9.53;4.63;;;;;;;;;;10402987;28;20060;-83
2023/04/27 17:45:45;;;;;;;10.37;4.50;;;;;;;;;;10406779;28;20841;-84
2023/04/27 17:50:46;;;;;;;11.23;5.13;;;;;;;;;;10398348;28;20038;-83
2023/04/27 17:55:47;;;;;;;10.90;6.13;;;;;;;;;;10421588;28;20044;-83
2023/04/27 18:00:48;;;;;;;16.63;7.53;;;;;;;;;;10423265;28;20120;-84
2023/04/27 18:05:49;;;;;;;19.63;8.20;;;;;;;;;;10435689;28;20032;-82
2023/04/27 18:10:50;;;;;;;29.17;12.17;;;;;;;;;;10422577;28;20045;-82
2023/04/27 18:15:51;;;;;;;24.37;10.10;;;;;;;;;;10404486;28;20037;-83
2023/04/27 18:20:52;;;;;;;14.97;6.83;;;;;;;;;;10406721;28;20033;-82
2023/04/27 18:25:57;;;;;;;16.47;6.47;;;;;;;;;;10405382;28;20053;-82
2023/04/27 18:30:59;;;;;;;10.40;5.10;;;;;;;;;;10404991;28;20041;-81
2023/04/27 18:36:01;;;;;;;13.50;6.43;;;;;;;;;;10404451;28;20564;-82
2023/04/27 18:41:03;;;;;;;15.40;7.50;;;;;;;;;;10400750;28;20033;-82
2023/04/27 18:46:04;;;;;;;18.03;7.63;;;;;;;;;;10402808;28;20032;-83
2023/04/27 18:51:05;;;;;;;19.33;8.77;;;;;;;;;;10408349;28;20102;-83
2023/04/27 18:56:06;;;;;;;38.20;15.23;;;;;;;;;;10414679;28;20112;-83
2023/04/27 19:01:07;;;;;;;40.30;16.60;;;;;;;;;;10403752;28;20045;-84
2023/04/27 19:06:08;;;;;;;42.63;16.53;;;;;;;;;;10400364;28;20088;-83
2023/04/27 19:11:10;;;;;;;34.27;13.23;;;;;;;;;;10404647;28;20044;-82
2023/04/27 19:16:11;;;;;;;26.73;11.77;;;;;;;;;;10404090;28;20028;-84
2023/04/27 19:21:12;;;;;;;26.17;11.07;;;;;;;;;;10405158;28;20021;-84
2023/04/27 19:26:13;;;;;;;24.10;10.83;;;;;;;;;;10403839;28;20049;-82
2023/04/27 19:31:14;;;;;;;19.80;9.70;;;;;;;;;;10401972;28;20050;-83
2023/04/27 19:36:15;;;;;;;21.30;9.07;;;;;;;;;;10405023;28;20043;-83
2023/04/27 19:41:16;;;;;;;19.20;8.40;;;;;;;;;;10403911;28;20395;-83
2023/04/27 19:46:17;;;;;;;20.77;8.63;;;;;;;;;;10406924;28;20033;-83
2023/04/27 19:51:18;;;;;;;21.13;10.20;;;;;;;;;;10408974;28;20111;-84
2023/04/27 19:56:19;;;;;;;26.07;10.70;;;;;;;;;;10402737;28;20112;-83
2023/04/27 20:01:20;;;;;;;22.17;10.87;;;;;;;;;;10403547;28;20040;-82
2023/04/27 20:06:21;;;;;;;26.00;12.13;;;;;;;;;;10403298;28;20041;-83
2023/04/27 20:11:22;;;;;;;25.77;12.07;;;;;;;;;;10402249;28;20135;-82
2023/04/27 20:16:24;;;;;;;33.97;15.53;;;;;;;;;;10401139;28;20055;-83
2023/04/27 20:21:26;;;;;;;59.47;28.40;;;;;;;;;;10401852;28;20591;-83
2023/04/27 20:26:28;;;;;;;39.73;16.37;;;;;;;;;;10401024;28;20762;-83
2023/04/27 20:31:30;;;;;;;31.10;14.63;;;;;;;;;;10402678;28;20095;-83
2023/04/27 20:36:31;;;;;;;53.37;26.67;;;;;;;;;;10402275;28;20439;-83
2023/04/27 20:41:34;;;;;;;49.43;25.30;;;;;;;;;;10402076;28;20026;-83
2023/04/27 20:46:36;;;;;;;35.30;17.40;;;;;;;;;;10409147;28;20555;-83
2023/04/27 20:51:37;;;;;;;25.47;12.53;;;;;;;;;;10402125;28;20069;-83
2023/04/27 20:56:38;;;;;;;22.90;11.00;;;;;;;;;;10402138;28;20113;-82
2023/04/27 21:01:38;;;;;;;19.83;8.53;;;;;;;;;;10402392;28;20034;-83
2023/04/27 21:06:40;;;;;;;28.30;13.07;;;;;;;;;;10408857;28;20130;-83
2023/04/27 21:11:41;;;;;;;24.03;10.57;;;;;;;;;;10408802;28;20572;-83
2023/04/27 21:16:42;;;;;;;24.23;11.50;;;;;;;;;;10408278;28;20045;-83
2023/04/27 21:21:43;;;;;;;23.47;12.67;;;;;;;;;;10408931;28;20041;-83
2023/04/27 21:26:44;;;;;;;28.60;14.67;;;;;;;;;;10406787;28;20050;-82
2023/04/27 21:31:45;;;;;;;26.23;14.03;;;;;;;;;;10409090;28;20049;-84
2023/04/27 21:36:46;;;;;;;37.67;18.93;;;;;;;;;;10408094;28;20030;-83
2023/04/27 21:41:47;;;;;;;31.97;16.87;;;;;;;;;;10406611;28;20060;-83
2023/04/27 21:46:48;;;;;;;31.50;15.63;;;;;;;;;;10403938;28;20044;-83
2023/04/27 21:51:49;;;;;;;36.70;18.03;;;;;;;;;;10408308;28;20049;-83
2023/04/27 21:56:50;;;;;;;35.67;16.83;;;;;;;;;;10405095;28;20040;-83
2023/04/27 22:01:51;;;;;;;39.97;15.97;;;;;;;;;;10406934;28;20029;-84
2023/04/27 22:06:52;;;;;;;31.37;15.07;;;;;;;;;;10414097;28;20064;-84
2023/04/27 22:11:53;;;;;;;33.50;15.37;;;;;;;;;;10405110;28;20046;-83
2023/04/27 22:16:54;;;;;;;30.50;15.17;;;;;;;;;;10404872;28;20484;-83
2023/04/27 22:21:55;;;;;;;34.27;15.73;;;;;;;;;;10407207;28;20029;-83
2023/04/27 22:26:56;;;;;;;53.30;25.77;;;;;;;;;;10405682;28;20046;-83
2023/04/27 22:31:57;;;;;;;35.47;16.10;;;;;;;;;;10406663;28;20084;-83
2023/04/27 22:36:58;;;;;;;46.53;21.10;;;;;;;;;;10406036;28;20732;-83
2023/04/27 22:41:59;;;;;;;80.93;30.40;;;;;;;;;;10405924;28;20120;-83
2023/04/27 22:47:01;;;;;;;40.90;20.53;;;;;;;;;;10405686;28;20040;-84
2023/04/27 22:52:02;;;;;;;40.90;18.40;;;;;;;;;;10404725;28;20508;-83
2023/04/27 22:57:03;;;;;;;47.23;23.87;;;;;;;;;;10405319;28;20533;-83
2023/04/27 23:02:04;;;;;;;77.17;34.47;;;;;;;;;;10404141;28;20041;-84
2023/04/27 23:07:05;;;;;;;75.30;36.47;;;;;;;;;;10403528;28;20550;-83
2023/04/27 23:12:07;;;;;;;69.87;33.13;;;;;;;;;;10403965;28;20086;-83
2023/04/27 23:17:09;;;;;;;66.60;30.27;;;;;;;;;;10403983;28;20564;-83
2023/04/27 23:22:10;;;;;;;70.00;32.67;;;;;;;;;;10404431;28;20040;-83
2023/04/27 23:27:11;;;;;;;67.80;32.83;;;;;;;;;;10401685;28;20508;-85
2023/04/27 23:32:12;;;;;;;67.30;31.70;;;;;;;;;;10403674;28;20818;-83
2023/04/27 23:37:13;;;;;;;75.73;33.03;;;;;;;;;;10408068;28;20026;-83
2023/04/27 23:42:14;;;;;;;62.83;30.17;;;;;;;;;;10423610;28;20029;-83
2023/04/27 23:47:15;;;;;;;61.43;33.13;;;;;;;;;;10413873;28;20064;-84
2023/04/27 23:52:16;;;;;;;63.53;32.40;;;;;;;;;;10403770;28;20485;-83
2023/04/27 23:57:17;;;;;;;62.30;30.40;;;;;;;;;;10400593;28;20037;-82
